Aviation Digital Data Service (ADDS)

Output produced by TAFs form (0858 UTC 06 March 2015)
found at http://aviationweather.gov/adds/tafs/
 
KDMN 060520Z 0606/0706 04007KT P6SM SKC 
     FM061500 07011KT P6SM SKC 
     FM061600 10008KT P6SM SKC